createdAt,value
2023-05-18T00:01:20.374Z,100.00
2023-05-18T00:03:48.436Z,100.00
2023-05-18T00:06:16.351Z,100.00
2023-05-18T00:08:44.173Z,100.00
2023-05-18T00:11:12.328Z,100.00
2023-05-18T00:13:40.348Z,100.00
2023-05-18T00:16:08.388Z,100.00
2023-05-18T00:18:37.633Z,100.00
2023-05-18T00:21:06.426Z,100.00
2023-05-18T00:23:34.277Z,100.00
2023-05-18T00:26:03.434Z,100.00
2023-05-18T00:28:31.253Z,100.00
2023-05-18T00:31:00.470Z,100.00
2023-05-18T00:33:28.279Z,100.00
2023-05-18T00:35:57.894Z,100.00
2023-05-18T00:38:26.212Z,100.00
2023-05-18T00:40:54.052Z,100.00
2023-05-18T00:43:21.801Z,100.00
2023-05-18T00:45:49.632Z,100.00
2023-05-18T00:48:17.500Z,100.00
2023-05-18T00:50:45.524Z,100.00
2023-05-18T00:53:14.653Z,100.00
2023-05-18T00:55:42.626Z,100.00
2023-05-18T00:58:10.897Z,100.00
2023-05-18T01:00:38.883Z,100.00
2023-05-18T01:03:10.558Z,100.00
2023-05-18T01:05:38.554Z,100.00
2023-05-18T01:08:06.731Z,100.00
2023-05-18T01:10:40.698Z,100.00
2023-05-18T01:13:14.227Z,100.00
2023-05-18T01:15:42.925Z,100.00
2023-05-18T01:18:16.433Z,100.00
2023-05-18T01:20:48.480Z,100.00
2023-05-18T01:23:29.725Z,100.00
2023-05-18T01:26:15.502Z,100.00
2023-05-18T01:28:46.310Z,100.00
2023-05-18T01:31:16.451Z,100.00
2023-05-18T01:33:44.695Z,100.00
2023-05-18T01:36:12.859Z,100.00
2023-05-18T01:38:44.195Z,100.00
2023-05-18T01:41:22.492Z,100.00
2023-05-18T01:43:55.772Z,100.00
2023-05-18T01:46:33.874Z,100.00
2023-05-18T01:49:06.571Z,100.00
2023-05-18T01:51:38.958Z,100.00
2023-05-18T01:54:09.339Z,100.00
2023-05-18T01:56:39.990Z,100.00
2023-05-18T01:59:08.098Z,100.00
2023-05-18T02:01:36.446Z,100.00
2023-05-18T02:04:08.641Z,100.00
2023-05-18T02:06:37.044Z,100.00
2023-05-18T02:09:05.492Z,100.00
2023-05-18T02:11:33.341Z,100.00
2023-05-18T02:14:02.661Z,100.00
2023-05-18T02:16:30.567Z,100.00
2023-05-18T02:19:00.514Z,100.00
2023-05-18T02:21:28.385Z,100.00
2023-05-18T02:23:56.255Z,100.00
2023-05-18T02:26:24.086Z,100.00
2023-05-18T02:28:51.918Z,100.00
2023-05-18T02:31:21.435Z,100.00
2023-05-18T02:33:49.257Z,100.00
2023-05-18T02:36:18.649Z,100.00
2023-05-18T02:38:46.568Z,100.00
2023-05-18T02:41:14.650Z,100.00
2023-05-18T02:43:42.371Z,100.00
2023-05-18T02:46:10.233Z,100.00
2023-05-18T02:48:39.547Z,100.00
2023-05-18T02:51:07.432Z,100.00
2023-05-18T02:53:35.293Z,100.00
2023-05-18T02:56:04.275Z,100.00
2023-05-18T02:58:32.207Z,100.00
2023-05-18T03:01:00.959Z,100.00
2023-05-18T03:03:28.908Z,100.00
2023-05-18T03:05:58.404Z,100.00
2023-05-18T03:08:27.135Z,100.00
2023-05-18T03:10:55.325Z,100.00
2023-05-18T03:13:23.174Z,100.00
2023-05-18T03:15:51.931Z,100.00
2023-05-18T03:18:20.162Z,100.00
2023-05-18T03:20:49.938Z,100.00
2023-05-18T03:23:19.108Z,100.00
2023-05-18T03:25:46.955Z,100.00
2023-05-18T03:28:14.741Z,100.00
2023-05-18T03:30:42.525Z,100.00
2023-05-18T03:33:10.559Z,100.00
2023-05-18T03:35:39.675Z,100.00
2023-05-18T03:38:08.022Z,100.00
2023-05-18T03:40:37.350Z,100.00
2023-05-18T03:43:05.385Z,100.00
2023-05-18T03:45:33.536Z,100.00
2023-05-18T03:48:01.381Z,100.00
2023-05-18T03:50:29.726Z,100.00
2023-05-18T03:52:57.546Z,100.00
2023-05-18T03:55:26.314Z,100.00
2023-05-18T03:57:55.641Z,100.00
2023-05-18T04:00:23.475Z,100.00
2023-05-18T04:02:52.165Z,100.00
2023-05-18T04:05:20.792Z,100.00
2023-05-18T04:07:49.996Z,100.00
2023-05-18T04:10:19.920Z,100.00
2023-05-18T04:12:47.923Z,100.00
2023-05-18T04:15:17.046Z,100.00
2023-05-18T04:17:45.803Z,100.00
2023-05-18T04:20:14.716Z,100.00
2023-05-18T04:22:46.584Z,100.00
2023-05-18T04:25:15.493Z,100.00
2023-05-18T04:27:45.587Z,100.00
2023-05-18T04:30:14.502Z,100.00
2023-05-18T04:32:43.805Z,100.00
2023-05-18T04:35:12.655Z,100.00
2023-05-18T04:37:41.451Z,100.00
2023-05-18T04:40:13.470Z,100.00
2023-05-18T04:42:45.608Z,100.00
2023-05-18T04:45:16.101Z,100.00
2023-05-18T04:47:46.861Z,100.00
2023-05-18T04:50:16.649Z,100.00
2023-05-18T04:52:47.997Z,100.00
2023-05-18T04:55:20.106Z,100.00
2023-05-18T04:57:47.712Z,100.00
2023-05-18T05:00:16.527Z,100.00
2023-05-18T05:02:46.136Z,100.00
2023-05-18T05:05:13.994Z,100.00
2023-05-18T05:07:41.829Z,100.00
2023-05-18T05:10:10.655Z,100.00
2023-05-18T05:12:39.118Z,100.00
2023-05-18T05:15:08.201Z,100.00
2023-05-18T05:17:36.040Z,100.00
2023-05-18T05:20:06.032Z,100.00
2023-05-18T05:22:33.874Z,100.00
2023-05-18T05:25:02.217Z,100.00
2023-05-18T05:27:31.159Z,100.00
2023-05-18T05:29:58.972Z,100.00
2023-05-18T05:32:27.094Z,100.00
2023-05-18T05:34:54.927Z,100.00
2023-05-18T05:37:24.135Z,100.00
2023-05-18T05:39:51.923Z,100.00
2023-05-18T05:42:19.874Z,100.00
2023-05-18T05:44:47.730Z,100.00
2023-05-18T05:47:15.613Z,100.00
2023-05-18T05:49:43.902Z,100.00
2023-05-18T05:52:11.667Z,100.00
2023-05-18T05:54:41.958Z,100.00
2023-05-18T05:57:09.710Z,100.00
2023-05-18T05:59:37.520Z,100.00
2023-05-18T06:02:05.720Z,100.00
2023-05-18T06:04:33.760Z,100.00
2023-05-18T06:07:01.745Z,100.00
2023-05-18T06:09:29.536Z,100.00
2023-05-18T06:11:58.849Z,100.00
2023-05-18T06:14:27.025Z,100.00
2023-05-18T06:16:54.836Z,100.00
2023-05-18T06:19:22.796Z,100.00
2023-05-18T06:21:50.865Z,100.00
2023-05-18T06:24:18.627Z,100.00
2023-05-18T06:26:46.393Z,100.00
2023-05-18T06:29:16.002Z,100.00
2023-05-18T06:31:44.152Z,100.00
2023-05-18T06:34:12.064Z,100.00
2023-05-18T06:36:40.075Z,100.00
2023-05-18T06:39:08.200Z,100.00
2023-05-18T06:41:36.060Z,100.00
2023-05-18T06:44:04.258Z,100.00
2023-05-18T06:46:33.436Z,100.00
2023-05-18T06:49:01.344Z,100.00
2023-05-18T06:51:29.240Z,100.00
2023-05-18T06:53:57.043Z,100.00
2023-05-18T06:56:24.993Z,100.00
2023-05-18T06:58:52.798Z,100.00
2023-05-18T07:01:20.726Z,100.00
2023-05-18T07:03:50.119Z,100.00
2023-05-18T07:06:17.986Z,100.00
2023-05-18T07:08:47.281Z,95.67
2023-05-18T07:11:15.516Z,92.45
2023-05-18T07:13:43.658Z,95.32
2023-05-18T07:16:11.592Z,90.96
2023-05-18T07:18:39.813Z,92.54
2023-05-18T07:21:09.206Z,90.72
2023-05-18T07:23:37.124Z,99.56
2023-05-18T07:26:05.013Z,100.00
2023-05-18T07:28:33.040Z,96.69
2023-05-18T07:31:01.085Z,97.62
2023-05-18T07:33:28.868Z,99.43
2023-05-18T07:35:56.866Z,100.00
2023-05-18T07:38:26.243Z,98.88
2023-05-18T07:40:54.108Z,99.70
2023-05-18T07:43:21.863Z,95.63
2023-05-18T07:45:49.577Z,100.00
2023-05-18T07:48:17.438Z,98.66
2023-05-18T07:50:45.267Z,100.00
2023-05-18T07:53:13.096Z,98.19
2023-05-18T07:55:43.228Z,91.37
2023-05-18T07:58:11.202Z,95.55
2023-05-18T08:00:39.078Z,87.48
2023-05-18T08:03:08.680Z,82.22
2023-05-18T08:05:36.587Z,75.92
2023-05-18T08:08:06.827Z,78.29
2023-05-18T08:10:34.902Z,79.79
2023-05-18T08:13:04.079Z,76.49
2023-05-18T08:15:32.144Z,66.25
2023-05-18T08:18:00.203Z,69.09
2023-05-18T08:20:30.495Z,65.98
2023-05-18T08:22:58.643Z,64.42
2023-05-18T08:25:26.547Z,65.84
2023-05-18T08:27:54.678Z,76.52
2023-05-18T08:30:24.106Z,69.80
2023-05-18T08:32:52.067Z,67.67
2023-05-18T08:35:20.056Z,71.39
2023-05-18T08:37:47.870Z,72.67
2023-05-18T08:40:15.782Z,79.23
2023-05-18T08:42:50.772Z,68.84
2023-05-18T08:45:31.356Z,64.28
2023-05-18T08:48:02.091Z,65.66
2023-05-18T08:50:33.760Z,72.74
2023-05-18T08:53:03.026Z,75.83
2023-05-18T08:55:34.741Z,76.76
2023-05-18T08:58:03.288Z,79.94
2023-05-18T09:00:34.403Z,79.16
2023-05-18T09:03:03.763Z,80.54
2023-05-18T09:05:32.338Z,81.89
2023-05-18T09:08:00.788Z,82.78
2023-05-18T09:10:29.306Z,79.44
2023-05-18T09:12:58.510Z,78.50
2023-05-18T09:15:27.276Z,79.78
2023-05-18T09:17:56.514Z,82.86
2023-05-18T09:20:26.759Z,79.73
2023-05-18T09:22:55.116Z,83.74
2023-05-18T09:25:24.933Z,86.62
2023-05-18T09:27:55.809Z,84.18
2023-05-18T09:30:25.676Z,84.41
2023-05-18T09:32:54.252Z,85.64
2023-05-18T09:35:26.286Z,82.59
2023-05-18T09:37:54.674Z,81.91
2023-05-18T09:40:29.768Z,81.94
2023-05-18T09:42:57.528Z,86.95
2023-05-18T09:45:26.716Z,83.25
2023-05-18T09:47:55.582Z,80.83
2023-05-18T09:50:25.682Z,84.00
2023-05-18T09:52:53.671Z,83.07
2023-05-18T09:55:21.859Z,82.08
2023-05-18T09:57:51.253Z,84.01
2023-05-18T10:00:23.558Z,83.78
2023-05-18T10:02:53.507Z,83.36
2023-05-18T10:05:22.187Z,85.56
2023-05-18T10:07:52.089Z,88.19
2023-05-18T10:10:21.734Z,88.11
2023-05-18T10:12:52.013Z,85.97
2023-05-18T10:15:21.674Z,87.10
2023-05-18T10:17:51.229Z,84.77
2023-05-18T10:20:20.935Z,82.84
2023-05-18T10:22:51.581Z,83.84
2023-05-18T10:25:21.701Z,79.15
2023-05-18T10:27:50.764Z,80.36
2023-05-18T10:30:18.789Z,74.98
2023-05-18T10:32:47.330Z,73.33
2023-05-18T10:35:15.942Z,64.75
2023-05-18T10:37:48.672Z,62.94
2023-05-18T10:40:18.653Z,64.01
2023-05-18T10:42:47.486Z,69.53
2023-05-18T10:45:16.775Z,72.61
2023-05-18T10:47:45.300Z,79.25
2023-05-18T10:50:17.007Z,77.74
2023-05-18T10:52:46.243Z,77.44
2023-05-18T10:55:14.530Z,80.50
2023-05-18T10:57:47.568Z,83.09
2023-05-18T11:00:16.413Z,83.71
2023-05-18T11:02:45.041Z,83.69
2023-05-18T11:05:13.789Z,77.04
2023-05-18T11:07:41.799Z,74.86
2023-05-18T11:10:11.587Z,70.37
2023-05-18T11:12:41.537Z,68.56
2023-05-18T11:15:12.003Z,67.15
2023-05-18T11:17:40.168Z,69.20
2023-05-18T11:20:17.442Z,70.20
2023-05-18T11:22:51.328Z,72.49
2023-05-18T11:25:39.061Z,67.47
2023-05-18T11:28:08.908Z,65.59
2023-05-18T11:30:51.917Z,68.37
2023-05-18T11:33:25.664Z,67.52
2023-05-18T11:36:07.164Z,69.68
2023-05-18T11:38:53.784Z,68.54
2023-05-18T11:41:29.871Z,71.96
2023-05-18T11:44:06.866Z,74.97
2023-05-18T11:46:36.267Z,73.93
2023-05-18T11:49:05.824Z,75.48
2023-05-18T11:51:34.119Z,76.74
2023-05-18T11:54:02.172Z,71.40
2023-05-18T11:56:34.355Z,71.12
2023-05-18T11:59:16.149Z,72.42
2023-05-18T12:01:45.489Z,73.21
2023-05-18T12:04:13.769Z,71.21
2023-05-18T12:06:42.067Z,67.92
2023-05-18T12:09:10.487Z,67.79
2023-05-18T12:11:39.072Z,68.26
2023-05-18T12:14:07.500Z,68.75
2023-05-18T12:16:37.811Z,67.70
2023-05-18T12:19:08.137Z,67.69
2023-05-18T12:21:37.271Z,70.89
2023-05-18T12:24:05.930Z,69.60
2023-05-18T12:26:34.133Z,69.75
2023-05-18T12:29:02.869Z,74.05
2023-05-18T12:31:31.719Z,68.19
2023-05-18T12:34:03.005Z,67.68
2023-05-18T12:36:33.736Z,69.06
2023-05-18T12:39:02.555Z,68.58
2023-05-18T12:41:30.343Z,66.31
2023-05-18T12:43:58.505Z,65.24
2023-05-18T12:46:26.528Z,68.29
2023-05-18T12:49:01.698Z,68.02
2023-05-18T12:51:35.466Z,67.99
2023-05-18T12:54:03.982Z,66.69
2023-05-18T12:56:53.317Z,66.82
2023-05-18T12:59:21.855Z,69.53
2023-05-18T13:01:50.155Z,68.88
2023-05-18T13:04:18.258Z,67.66
2023-05-18T13:06:48.517Z,69.58
2023-05-18T13:09:16.769Z,66.37
2023-05-18T13:12:03.943Z,66.40
2023-05-18T13:14:39.177Z,67.43
2023-05-18T13:17:07.085Z,68.83
2023-05-18T13:19:36.700Z,67.39
2023-05-18T13:22:06.190Z,68.39
2023-05-18T13:24:34.160Z,71.62
2023-05-18T13:27:02.410Z,70.96
2023-05-18T13:29:30.568Z,68.71
2023-05-18T13:31:58.751Z,70.64
2023-05-18T13:34:26.459Z,71.30
2023-05-18T13:36:54.322Z,71.29
2023-05-18T13:39:23.479Z,69.75
2023-05-18T13:41:51.718Z,76.38
2023-05-18T13:44:19.646Z,69.75
2023-05-18T13:46:47.462Z,68.89
2023-05-18T13:49:15.256Z,69.83
2023-05-18T13:51:43.126Z,73.39
2023-05-18T13:54:10.912Z,73.66
2023-05-18T13:56:39.997Z,69.21
2023-05-18T13:59:07.837Z,68.34
2023-05-18T14:01:35.720Z,66.60
2023-05-18T14:04:03.712Z,67.49
2023-05-18T14:06:31.753Z,68.01
2023-05-18T14:08:59.489Z,70.08
2023-05-18T14:11:27.565Z,69.11
2023-05-18T14:13:56.882Z,68.45
2023-05-18T14:16:24.824Z,71.22
2023-05-18T14:18:52.682Z,72.75
2023-05-18T14:21:20.826Z,74.72
2023-05-18T14:23:48.726Z,77.25
2023-05-18T14:26:16.529Z,74.76
2023-05-18T14:28:44.350Z,71.62
2023-05-18T14:31:13.574Z,73.47
2023-05-18T14:33:41.543Z,72.62
2023-05-18T14:36:09.405Z,72.60
2023-05-18T14:38:37.285Z,69.33
2023-05-18T14:41:05.162Z,68.15
2023-05-18T14:43:33.013Z,68.89
2023-05-18T14:46:08.661Z,69.09
2023-05-18T14:48:38.662Z,71.55
2023-05-18T14:51:06.584Z,72.32
2023-05-18T14:53:34.470Z,73.70
2023-05-18T14:56:09.926Z,70.32
2023-05-18T14:58:38.126Z,68.77
2023-05-18T15:01:06.435Z,72.34
2023-05-18T15:03:34.400Z,71.37
2023-05-18T15:06:03.679Z,71.15
2023-05-18T15:08:31.741Z,70.42
2023-05-18T15:10:59.922Z,71.56
2023-05-18T15:13:27.772Z,72.20
2023-05-18T15:15:55.749Z,73.13
2023-05-18T15:18:23.679Z,72.20
2023-05-18T15:20:51.557Z,72.39
2023-05-18T15:23:21.634Z,72.06
2023-05-18T15:25:51.438Z,73.33
2023-05-18T15:28:19.412Z,72.47
2023-05-18T15:30:47.299Z,71.43
2023-05-18T15:33:15.290Z,71.94
2023-05-18T15:35:43.068Z,71.73
2023-05-18T15:38:11.094Z,74.05
2023-05-18T15:40:41.792Z,74.18
2023-05-18T15:43:09.527Z,73.17
2023-05-18T15:45:37.532Z,72.44
2023-05-18T15:48:05.717Z,73.04
2023-05-18T15:50:33.623Z,73.98
2023-05-18T15:53:01.457Z,74.17
2023-05-18T15:55:29.362Z,75.26
2023-05-18T15:57:58.980Z,78.37
2023-05-18T16:00:26.750Z,78.18
2023-05-18T16:02:54.637Z,73.21
2023-05-18T16:05:22.468Z,74.26
2023-05-18T16:07:50.249Z,73.53
2023-05-18T16:10:18.565Z,73.41
2023-05-18T16:12:46.420Z,71.81
2023-05-18T16:15:16.037Z,72.85
2023-05-18T16:17:43.902Z,74.52
2023-05-18T16:20:14.130Z,72.93
2023-05-18T16:22:42.072Z,76.54
2023-05-18T16:25:10.855Z,77.53
2023-05-18T16:27:38.860Z,76.94
2023-05-18T16:30:07.991Z,76.14
2023-05-18T16:32:37.306Z,76.35
2023-05-18T16:35:05.770Z,77.04
2023-05-18T16:37:33.640Z,77.63
2023-05-18T16:40:01.496Z,78.65
2023-05-18T16:42:29.270Z,77.39
2023-05-18T16:44:57.081Z,76.58
2023-05-18T16:47:24.989Z,78.88
2023-05-18T16:49:54.208Z,76.98
2023-05-18T16:52:22.066Z,77.53
2023-05-18T16:54:49.923Z,79.71
2023-05-18T16:57:17.691Z,80.82
2023-05-18T16:59:45.523Z,81.01
2023-05-18T17:02:14.332Z,78.72
2023-05-18T17:04:44.613Z,77.74
2023-05-18T17:07:14.041Z,78.40
2023-05-18T17:09:42.707Z,80.50
2023-05-18T17:12:11.574Z,81.51
2023-05-18T17:14:39.789Z,82.88
2023-05-18T17:17:07.881Z,86.03
2023-05-18T17:19:36.222Z,82.66
2023-05-18T17:22:04.720Z,77.63
2023-05-18T17:24:33.848Z,78.87
2023-05-18T17:27:01.706Z,81.81
2023-05-18T17:29:29.646Z,81.26
2023-05-18T17:31:57.684Z,81.06
2023-05-18T17:34:27.303Z,82.02
2023-05-18T17:36:55.891Z,83.48
2023-05-18T17:39:23.812Z,86.09
2023-05-18T17:41:54.406Z,84.62
2023-05-18T17:44:22.308Z,81.44
2023-05-18T17:46:51.018Z,81.20
2023-05-18T17:49:19.318Z,83.99
2023-05-18T17:51:47.260Z,82.14
2023-05-18T17:54:15.036Z,81.68
2023-05-18T17:56:42.803Z,83.15
2023-05-18T17:59:11.964Z,87.22
2023-05-18T18:01:39.838Z,85.01
2023-05-18T18:04:07.837Z,86.19
2023-05-18T18:06:37.032Z,85.13
2023-05-18T18:09:06.109Z,87.31
2023-05-18T18:11:34.172Z,87.28
2023-05-18T18:14:02.227Z,85.07
2023-05-18T18:16:31.565Z,83.74
2023-05-18T18:18:59.445Z,84.69
2023-05-18T18:21:27.234Z,84.29
2023-05-18T18:23:55.112Z,88.07
2023-05-18T18:26:22.970Z,91.39
2023-05-18T18:28:51.219Z,88.52
2023-05-18T18:31:21.141Z,90.63
2023-05-18T18:33:51.332Z,87.28
2023-05-18T18:36:19.614Z,86.61
2023-05-18T18:38:47.460Z,90.65
2023-05-18T18:41:17.290Z,89.48
2023-05-18T18:43:45.716Z,96.74
2023-05-18T18:46:13.970Z,100.00
2023-05-18T18:48:41.772Z,100.00
2023-05-18T18:51:10.901Z,100.00
2023-05-18T18:53:38.841Z,100.00
2023-05-18T18:56:06.673Z,96.34
2023-05-18T18:58:34.469Z,98.50
2023-05-18T19:01:02.326Z,99.30
2023-05-18T19:03:30.075Z,96.79
2023-05-18T19:05:58.046Z,94.60
2023-05-18T19:08:27.293Z,98.44
2023-05-18T19:10:56.149Z,97.59
2023-05-18T19:13:23.922Z,100.00
2023-05-18T19:15:51.922Z,100.00
2023-05-18T19:18:19.741Z,100.00
2023-05-18T19:20:47.583Z,97.41
2023-05-18T19:23:15.500Z,99.48
2023-05-18T19:25:44.722Z,96.74
2023-05-18T19:28:12.517Z,98.00
2023-05-18T19:30:40.345Z,97.49
2023-05-18T19:33:08.206Z,100.00
2023-05-18T19:35:36.407Z,99.13
2023-05-18T19:38:04.160Z,97.26
2023-05-18T19:40:32.097Z,94.68
2023-05-18T19:43:01.632Z,94.42
2023-05-18T19:45:29.757Z,95.39
2023-05-18T19:47:58.156Z,96.42
2023-05-18T19:50:26.029Z,97.09
2023-05-18T19:52:53.934Z,93.90
2023-05-18T19:55:21.818Z,93.25
2023-05-18T19:57:49.670Z,94.98
2023-05-18T20:00:20.018Z,96.54
2023-05-18T20:02:47.917Z,97.49
2023-05-18T20:05:18.770Z,95.09
2023-05-18T20:07:46.843Z,93.20
2023-05-18T20:10:14.751Z,92.82
2023-05-18T20:12:42.741Z,92.87
2023-05-18T20:15:11.021Z,90.78
2023-05-18T20:17:40.311Z,93.11
2023-05-18T20:20:09.072Z,93.59
2023-05-18T20:22:37.039Z,93.55
2023-05-18T20:25:05.616Z,93.77
2023-05-18T20:27:33.523Z,95.85
2023-05-18T20:30:01.395Z,97.56
2023-05-18T20:32:29.347Z,100.00
2023-05-18T20:34:58.578Z,100.00
2023-05-18T20:37:26.540Z,100.00
2023-05-18T20:39:57.377Z,100.00
2023-05-18T20:42:31.198Z,100.00
2023-05-18T20:44:59.376Z,100.00
2023-05-18T20:47:27.343Z,99.40
2023-05-18T20:49:58.285Z,100.00
2023-05-18T20:52:27.617Z,100.00
2023-05-18T20:54:55.517Z,100.00
2023-05-18T20:57:24.082Z,100.00
2023-05-18T20:59:52.346Z,100.00
2023-05-18T21:02:20.372Z,100.00
2023-05-18T21:04:48.420Z,100.00
2023-05-18T21:07:16.569Z,100.00
2023-05-18T21:09:45.850Z,100.00
2023-05-18T21:12:13.638Z,99.35
2023-05-18T21:14:41.839Z,98.77
2023-05-18T21:17:09.819Z,99.82
2023-05-18T21:19:37.587Z,100.00
2023-05-18T21:22:05.815Z,100.00
2023-05-18T21:24:33.641Z,100.00
2023-05-18T21:27:02.997Z,100.00
2023-05-18T21:29:30.881Z,100.00
2023-05-18T21:31:58.746Z,100.00
2023-05-18T21:34:26.572Z,100.00
2023-05-18T21:36:54.413Z,100.00
2023-05-18T21:39:22.159Z,100.00
2023-05-18T21:41:50.196Z,100.00
2023-05-18T21:44:19.357Z,100.00
2023-05-18T21:46:47.145Z,100.00
2023-05-18T21:49:14.967Z,100.00
2023-05-18T21:51:42.800Z,100.00
2023-05-18T21:54:10.803Z,100.00
2023-05-18T21:56:38.811Z,100.00
2023-05-18T21:59:06.557Z,100.00
2023-05-18T22:01:35.851Z,100.00
2023-05-18T22:04:03.829Z,100.00
2023-05-18T22:06:31.741Z,100.00
2023-05-18T22:08:59.546Z,100.00
2023-05-18T22:11:27.377Z,100.00
2023-05-18T22:13:55.965Z,100.00
2023-05-18T22:16:23.803Z,100.00
2023-05-18T22:18:53.097Z,100.00
2023-05-18T22:21:21.162Z,100.00
2023-05-18T22:23:49.067Z,100.00
2023-05-18T22:26:16.928Z,100.00
2023-05-18T22:28:44.725Z,100.00
2023-05-18T22:31:12.496Z,100.00
2023-05-18T22:33:40.315Z,100.00
2023-05-18T22:36:09.915Z,100.00
2023-05-18T22:38:38.240Z,100.00
2023-05-18T22:41:06.107Z,100.00
2023-05-18T22:43:33.875Z,100.00
2023-05-18T22:46:02.034Z,100.00
2023-05-18T22:48:31.902Z,100.00
2023-05-18T22:51:00.774Z,100.00
2023-05-18T22:53:29.919Z,100.00
2023-05-18T22:55:59.050Z,100.00
2023-05-18T22:58:26.931Z,100.00
2023-05-18T23:00:54.807Z,100.00
2023-05-18T23:03:22.620Z,100.00
2023-05-18T23:05:51.017Z,100.00
2023-05-18T23:08:20.393Z,100.00
2023-05-18T23:10:50.718Z,100.00
2023-05-18T23:13:19.685Z,100.00
2023-05-18T23:15:47.846Z,100.00
2023-05-18T23:18:15.845Z,100.00
2023-05-18T23:20:43.661Z,100.00
2023-05-18T23:23:11.606Z,100.00
2023-05-18T23:25:39.762Z,100.00
2023-05-18T23:28:08.930Z,100.00
2023-05-18T23:30:36.783Z,100.00
2023-05-18T23:33:06.213Z,100.00
2023-05-18T23:35:36.233Z,100.00
2023-05-18T23:38:06.359Z,100.00
2023-05-18T23:40:34.793Z,100.00
2023-05-18T23:43:03.101Z,100.00
2023-05-18T23:45:33.023Z,100.00
2023-05-18T23:48:01.172Z,100.00
2023-05-18T23:50:29.712Z,100.00
2023-05-18T23:53:04.125Z,100.00
2023-05-18T23:55:34.844Z,100.00
2023-05-18T23:58:03.708Z,100.00
